sensor_id;sensor_type;location;lat;lon;timestamp;temperature;humidity
4820;DHT22;2424;49.696;6.630;2023-02-28T00:04:08;-0.90;99.90
4820;DHT22;2424;49.696;6.630;2023-02-28T00:09:30;-1.00;99.90
4820;DHT22;2424;49.696;6.630;2023-02-28T00:14:54;-0.90;99.90
4820;DHT22;2424;49.696;6.630;2023-02-28T00:20:16;-0.80;99.90
4820;DHT22;2424;49.696;6.630;2023-02-28T00:25:38;-0.70;99.90
4820;DHT22;2424;49.696;6.630;2023-02-28T00:31:01;-0.70;99.90
4820;DHT22;2424;49.696;6.630;2023-02-28T00:36:23;-0.70;99.90
4820;DHT22;2424;49.696;6.630;2023-02-28T00:41:45;-0.90;99.90
4820;DHT22;2424;49.696;6.630;2023-02-28T00:47:08;-1.00;99.90
4820;DHT22;2424;49.696;6.630;2023-02-28T00:52:30;-1.20;99.90
4820;DHT22;2424;49.696;6.630;2023-02-28T00:57:52;-1.00;99.90
4820;DHT22;2424;49.696;6.630;2023-02-28T01:03:16;-1.10;99.90
4820;DHT22;2424;49.696;6.630;2023-02-28T01:08:38;-1.10;99.90
4820;DHT22;2424;49.696;6.630;2023-02-28T01:14:02;-1.10;99.90
4820;DHT22;2424;49.696;6.630;2023-02-28T01:19:25;-1.00;99.90
4820;DHT22;2424;49.696;6.630;2023-02-28T01:24:47;-1.00;99.90
4820;DHT22;2424;49.696;6.630;2023-02-28T01:30:11;-1.00;99.90
4820;DHT22;2424;49.696;6.630;2023-02-28T01:35:35;-1.00;99.90
4820;DHT22;2424;49.696;6.630;2023-02-28T01:40:57;-1.00;99.90
4820;DHT22;2424;49.696;6.630;2023-02-28T01:46:19;-0.90;99.90
4820;DHT22;2424;49.696;6.630;2023-02-28T01:51:45;-0.90;99.90
4820;DHT22;2424;49.696;6.630;2023-02-28T01:57:15;-0.90;99.90
4820;DHT22;2424;49.696;6.630;2023-02-28T02:02:38;-1.00;99.90
4820;DHT22;2424;49.696;6.630;2023-02-28T02:08:04;-1.10;99.90
4820;DHT22;2424;49.696;6.630;2023-02-28T02:13:38;-1.10;99.90
4820;DHT22;2424;49.696;6.630;2023-02-28T02:19:14;-1.00;99.90
4820;DHT22;2424;49.696;6.630;2023-02-28T02:24:59;-1.00;99.90
4820;DHT22;2424;49.696;6.630;2023-02-28T02:30:43;-1.10;99.90
4820;DHT22;2424;49.696;6.630;2023-02-28T02:36:11;-1.10;99.90
4820;DHT22;2424;49.696;6.630;2023-02-28T02:41:36;-1.10;99.90
4820;DHT22;2424;49.696;6.630;2023-02-28T02:47:05;-1.30;99.90
4820;DHT22;2424;49.696;6.630;2023-02-28T02:52:34;-1.30;99.90
4820;DHT22;2424;49.696;6.630;2023-02-28T02:58:00;-1.40;99.90
4820;DHT22;2424;49.696;6.630;2023-02-28T03:03:23;-1.50;99.90
4820;DHT22;2424;49.696;6.630;2023-02-28T03:08:51;-1.60;99.90
4820;DHT22;2424;49.696;6.630;2023-02-28T03:14:26;-1.70;99.90
4820;DHT22;2424;49.696;6.630;2023-02-28T03:20:01;-1.80;99.90
4820;DHT22;2424;49.696;6.630;2023-02-28T03:25:36;-1.80;99.90
4820;DHT22;2424;49.696;6.630;2023-02-28T03:31:03;-1.90;99.90
4820;DHT22;2424;49.696;6.630;2023-02-28T03:36:33;-1.90;99.90
4820;DHT22;2424;49.696;6.630;2023-02-28T03:42:08;-2.00;99.90
4820;DHT22;2424;49.696;6.630;2023-02-28T03:47:33;-2.00;99.90
4820;DHT22;2424;49.696;6.630;2023-02-28T03:53:00;-1.80;99.90
4820;DHT22;2424;49.696;6.630;2023-02-28T03:58:30;-1.70;99.90
4820;DHT22;2424;49.696;6.630;2023-02-28T04:03:53;-1.70;99.90
4820;DHT22;2424;49.696;6.630;2023-02-28T04:09:15;-1.60;99.90
4820;DHT22;2424;49.696;6.630;2023-02-28T04:14:38;-1.50;99.90
4820;DHT22;2424;49.696;6.630;2023-02-28T04:20:00;-1.60;99.90
4820;DHT22;2424;49.696;6.630;2023-02-28T04:25:24;-1.50;99.90
4820;DHT22;2424;49.696;6.630;2023-02-28T04:30:47;-1.60;99.90
4820;DHT22;2424;49.696;6.630;2023-02-28T04:36:09;-1.60;99.90
4820;DHT22;2424;49.696;6.630;2023-02-28T04:41:31;-1.60;99.90
4820;DHT22;2424;49.696;6.630;2023-02-28T04:46:54;-1.60;99.90
4820;DHT22;2424;49.696;6.630;2023-02-28T04:52:16;-1.60;99.90
4820;DHT22;2424;49.696;6.630;2023-02-28T04:57:38;-1.60;99.90
4820;DHT22;2424;49.696;6.630;2023-02-28T05:03:04;-1.70;99.90
4820;DHT22;2424;49.696;6.630;2023-02-28T05:08:26;-1.70;99.90
4820;DHT22;2424;49.696;6.630;2023-02-28T05:13:51;-1.70;99.90
4820;DHT22;2424;49.696;6.630;2023-02-28T05:19:15;-1.60;99.90
4820;DHT22;2424;49.696;6.630;2023-02-28T05:24:37;-1.60;99.90
4820;DHT22;2424;49.696;6.630;2023-02-28T05:29:59;-1.70;99.90
4820;DHT22;2424;49.696;6.630;2023-02-28T05:35:25;-1.70;99.90
4820;DHT22;2424;49.696;6.630;2023-02-28T05:40:47;-1.70;99.90
4820;DHT22;2424;49.696;6.630;2023-02-28T05:46:11;-1.70;99.90
4820;DHT22;2424;49.696;6.630;2023-02-28T05:51:34;-1.70;99.90
4820;DHT22;2424;49.696;6.630;2023-02-28T05:57:00;-1.80;99.90
4820;DHT22;2424;49.696;6.630;2023-02-28T06:02:22;-1.80;99.90
4820;DHT22;2424;49.696;6.630;2023-02-28T06:07:45;-1.80;99.90
4820;DHT22;2424;49.696;6.630;2023-02-28T06:13:07;-1.80;99.90
4820;DHT22;2424;49.696;6.630;2023-02-28T06:18:29;-1.80;99.90
4820;DHT22;2424;49.696;6.630;2023-02-28T06:23:52;-1.80;99.90
4820;DHT22;2424;49.696;6.630;2023-02-28T06:29:14;-1.80;99.90
4820;DHT22;2424;49.696;6.630;2023-02-28T06:34:37;-1.90;99.90
4820;DHT22;2424;49.696;6.630;2023-02-28T06:40:00;-1.90;99.90
4820;DHT22;2424;49.696;6.630;2023-02-28T06:45:23;-1.80;99.90
4820;DHT22;2424;49.696;6.630;2023-02-28T06:50:46;-1.90;99.90
4820;DHT22;2424;49.696;6.630;2023-02-28T06:56:11;-1.90;99.90
4820;DHT22;2424;49.696;6.630;2023-02-28T07:01:33;-1.90;99.90
4820;DHT22;2424;49.696;6.630;2023-02-28T07:06:55;-1.80;99.90
4820;DHT22;2424;49.696;6.630;2023-02-28T07:12:19;-1.80;99.90
4820;DHT22;2424;49.696;6.630;2023-02-28T07:17:41;-1.80;99.90
4820;DHT22;2424;49.696;6.630;2023-02-28T07:23:03;-1.70;99.90
4820;DHT22;2424;49.696;6.630;2023-02-28T07:28:26;-1.70;99.90
4820;DHT22;2424;49.696;6.630;2023-02-28T07:33:48;-1.60;99.90
4820;DHT22;2424;49.696;6.630;2023-02-28T07:39:10;-1.60;99.90
4820;DHT22;2424;49.696;6.630;2023-02-28T07:44:34;-1.60;99.90
4820;DHT22;2424;49.696;6.630;2023-02-28T07:49:56;-1.50;99.90
4820;DHT22;2424;49.696;6.630;2023-02-28T07:55:18;-1.50;99.90
4820;DHT22;2424;49.696;6.630;2023-02-28T08:00:41;-1.50;99.90
4820;DHT22;2424;49.696;6.630;2023-02-28T08:06:04;-1.40;99.90
4820;DHT22;2424;49.696;6.630;2023-02-28T08:11:26;-1.40;99.90
4820;DHT22;2424;49.696;6.630;2023-02-28T08:16:49;-1.30;99.90
4820;DHT22;2424;49.696;6.630;2023-02-28T08:22:11;-1.20;99.90
4820;DHT22;2424;49.696;6.630;2023-02-28T08:27:33;-1.10;99.90
4820;DHT22;2424;49.696;6.630;2023-02-28T08:32:56;-1.00;99.90
4820;DHT22;2424;49.696;6.630;2023-02-28T08:38:18;-0.90;99.90
4820;DHT22;2424;49.696;6.630;2023-02-28T08:43:40;-0.80;99.90
4820;DHT22;2424;49.696;6.630;2023-02-28T08:49:04;-0.70;99.90
4820;DHT22;2424;49.696;6.630;2023-02-28T08:54:27;-0.50;99.90
4820;DHT22;2424;49.696;6.630;2023-02-28T08:59:51;-0.40;99.90
4820;DHT22;2424;49.696;6.630;2023-02-28T09:05:15;-0.30;99.90
4820;DHT22;2424;49.696;6.630;2023-02-28T09:10:37;-0.30;99.90
4820;DHT22;2424;49.696;6.630;2023-02-28T09:16:00;-0.30;99.90
4820;DHT22;2424;49.696;6.630;2023-02-28T09:21:24;-0.30;99.90
4820;DHT22;2424;49.696;6.630;2023-02-28T09:26:46;-0.20;99.90
4820;DHT22;2424;49.696;6.630;2023-02-28T09:32:08;-0.10;99.90
4820;DHT22;2424;49.696;6.630;2023-02-28T09:37:31;0.10;99.90
4820;DHT22;2424;49.696;6.630;2023-02-28T09:42:55;0.20;99.90
4820;DHT22;2424;49.696;6.630;2023-02-28T09:48:20;0.30;99.90
4820;DHT22;2424;49.696;6.630;2023-02-28T09:53:44;0.40;99.90
4820;DHT22;2424;49.696;6.630;2023-02-28T09:59:37;0.50;99.90
4820;DHT22;2424;49.696;6.630;2023-02-28T10:05:04;0.60;99.90
4820;DHT22;2424;49.696;6.630;2023-02-28T10:10:35;0.80;99.90
4820;DHT22;2424;49.696;6.630;2023-02-28T10:16:02;0.90;99.90
4820;DHT22;2424;49.696;6.630;2023-02-28T10:21:28;1.10;99.90
4820;DHT22;2424;49.696;6.630;2023-02-28T10:26:58;1.20;99.90
4820;DHT22;2424;49.696;6.630;2023-02-28T10:32:23;1.40;99.90
4820;DHT22;2424;49.696;6.630;2023-02-28T10:37:47;1.10;99.90
4820;DHT22;2424;49.696;6.630;2023-02-28T10:43:22;1.20;99.90
4820;DHT22;2424;49.696;6.630;2023-02-28T10:48:47;1.40;99.90
4820;DHT22;2424;49.696;6.630;2023-02-28T10:54:20;1.40;99.90
4820;DHT22;2424;49.696;6.630;2023-02-28T10:59:45;1.60;99.90
4820;DHT22;2424;49.696;6.630;2023-02-28T11:05:28;1.60;99.90
4820;DHT22;2424;49.696;6.630;2023-02-28T11:10:54;1.60;99.90
4820;DHT22;2424;49.696;6.630;2023-02-28T11:16:19;1.70;99.90
4820;DHT22;2424;49.696;6.630;2023-02-28T11:21:50;1.80;99.90
4820;DHT22;2424;49.696;6.630;2023-02-28T11:27:26;2.00;99.90
4820;DHT22;2424;49.696;6.630;2023-02-28T11:33:21;2.40;99.90
4820;DHT22;2424;49.696;6.630;2023-02-28T11:38:43;2.30;99.90
4820;DHT22;2424;49.696;6.630;2023-02-28T11:44:18;2.40;99.90
4820;DHT22;2424;49.696;6.630;2023-02-28T11:49:50;2.50;99.90
4820;DHT22;2424;49.696;6.630;2023-02-28T11:55:21;2.60;99.90
4820;DHT22;2424;49.696;6.630;2023-02-28T12:01:03;2.60;99.90
4820;DHT22;2424;49.696;6.630;2023-02-28T12:06:33;2.70;99.90
4820;DHT22;2424;49.696;6.630;2023-02-28T12:12:04;2.80;99.90
4820;DHT22;2424;49.696;6.630;2023-02-28T12:17:50;2.80;99.90
4820;DHT22;2424;49.696;6.630;2023-02-28T12:23:34;3.00;99.90
4820;DHT22;2424;49.696;6.630;2023-02-28T12:29:04;3.20;99.90
4820;DHT22;2424;49.696;6.630;2023-02-28T12:34:33;3.20;99.40
4820;DHT22;2424;49.696;6.630;2023-02-28T12:40:00;3.70;99.90
4820;DHT22;2424;49.696;6.630;2023-02-28T12:45:30;3.90;99.90
4820;DHT22;2424;49.696;6.630;2023-02-28T12:50:53;4.10;98.80
4820;DHT22;2424;49.696;6.630;2023-02-28T12:56:21;4.90;99.90
4820;DHT22;2424;49.696;6.630;2023-02-28T13:08:07;4.50;97.90
4820;DHT22;2424;49.696;6.630;2023-02-28T13:13:33;4.80;98.30
4820;DHT22;2424;49.696;6.630;2023-02-28T13:19:09;5.50;98.60
4820;DHT22;2424;49.696;6.630;2023-02-28T13:24:44;6.20;97.70
4820;DHT22;2424;49.696;6.630;2023-02-28T13:36:26;6.80;96.00
4820;DHT22;2424;49.696;6.630;2023-02-28T13:41:50;6.60;94.30
4820;DHT22;2424;49.696;6.630;2023-02-28T13:47:28;6.30;94.40
4820;DHT22;2424;49.696;6.630;2023-02-28T13:53:03;7.00;95.70
4820;DHT22;2424;49.696;6.630;2023-02-28T13:58:41;6.90;94.20
4820;DHT22;2424;49.696;6.630;2023-02-28T14:04:49;6.70;94.10
4820;DHT22;2424;49.696;6.630;2023-02-28T14:10:26;7.00;95.40
4820;DHT22;2424;49.696;6.630;2023-02-28T14:15:56;7.60;95.90
4820;DHT22;2424;49.696;6.630;2023-02-28T14:21:22;7.20;91.60
4820;DHT22;2424;49.696;6.630;2023-02-28T14:27:05;7.50;94.20
4820;DHT22;2424;49.696;6.630;2023-02-28T14:32:33;7.40;92.90
4820;DHT22;2424;49.696;6.630;2023-02-28T14:37:56;7.50;92.30
4820;DHT22;2424;49.696;6.630;2023-02-28T14:43:22;7.40;92.90
4820;DHT22;2424;49.696;6.630;2023-02-28T14:48:45;7.60;92.40
4820;DHT22;2424;49.696;6.630;2023-02-28T14:54:14;7.70;92.50
4820;DHT22;2424;49.696;6.630;2023-02-28T14:59:38;7.90;93.10
4820;DHT22;2424;49.696;6.630;2023-02-28T15:05:03;8.10;92.30
4820;DHT22;2424;49.696;6.630;2023-02-28T15:10:32;8.00;92.10
4820;DHT22;2424;49.696;6.630;2023-02-28T15:15:58;7.60;91.50
4820;DHT22;2424;49.696;6.630;2023-02-28T15:21:26;7.80;92.40
4820;DHT22;2424;49.696;6.630;2023-02-28T15:26:53;7.90;91.70
4820;DHT22;2424;49.696;6.630;2023-02-28T15:32:30;7.70;90.70
4820;DHT22;2424;49.696;6.630;2023-02-28T15:37:53;7.70;92.00
4820;DHT22;2424;49.696;6.630;2023-02-28T15:43:17;7.60;90.60
4820;DHT22;2424;49.696;6.630;2023-02-28T15:48:54;7.70;91.50
4820;DHT22;2424;49.696;6.630;2023-02-28T15:54:19;7.60;91.40
4820;DHT22;2424;49.696;6.630;2023-02-28T15:59:48;7.60;92.80
4820;DHT22;2424;49.696;6.630;2023-02-28T16:05:21;7.40;91.80
4820;DHT22;2424;49.696;6.630;2023-02-28T16:10:48;7.20;91.40
4820;DHT22;2424;49.696;6.630;2023-02-28T16:16:15;7.10;91.70
4820;DHT22;2424;49.696;6.630;2023-02-28T16:21:39;7.00;91.10
4820;DHT22;2424;49.696;6.630;2023-02-28T16:27:01;6.90;91.30
4820;DHT22;2424;49.696;6.630;2023-02-28T16:32:23;7.70;91.30
4820;DHT22;2424;49.696;6.630;2023-02-28T16:37:46;7.30;91.30
4820;DHT22;2424;49.696;6.630;2023-02-28T16:43:13;6.80;91.70
4820;DHT22;2424;49.696;6.630;2023-02-28T16:48:37;6.50;91.40
4820;DHT22;2424;49.696;6.630;2023-02-28T16:54:01;6.20;91.10
4820;DHT22;2424;49.696;6.630;2023-02-28T16:59:24;6.70;91.70
4820;DHT22;2424;49.696;6.630;2023-02-28T17:04:47;6.70;91.50
4820;DHT22;2424;49.696;6.630;2023-02-28T17:10:14;6.20;90.80
4820;DHT22;2424;49.696;6.630;2023-02-28T17:15:37;5.60;91.80
4820;DHT22;2424;49.696;6.630;2023-02-28T17:20:59;5.20;92.80
4820;DHT22;2424;49.696;6.630;2023-02-28T17:26:23;4.70;94.60
4820;DHT22;2424;49.696;6.630;2023-02-28T17:31:45;4.00;94.90
4820;DHT22;2424;49.696;6.630;2023-02-28T17:37:09;3.80;95.60
4820;DHT22;2424;49.696;6.630;2023-02-28T17:42:32;3.50;95.90
4820;DHT22;2424;49.696;6.630;2023-02-28T17:47:54;3.10;96.60
4820;DHT22;2424;49.696;6.630;2023-02-28T17:53:16;2.90;96.00
4820;DHT22;2424;49.696;6.630;2023-02-28T17:58:41;2.80;97.00
4820;DHT22;2424;49.696;6.630;2023-02-28T18:04:03;2.60;97.20
4820;DHT22;2424;49.696;6.630;2023-02-28T18:09:25;2.50;98.10
4820;DHT22;2424;49.696;6.630;2023-02-28T18:14:48;2.30;98.20
4820;DHT22;2424;49.696;6.630;2023-02-28T18:20:11;2.20;98.20
4820;DHT22;2424;49.696;6.630;2023-02-28T18:25:33;2.00;98.90
4820;DHT22;2424;49.696;6.630;2023-02-28T18:30:56;1.90;99.50
4820;DHT22;2424;49.696;6.630;2023-02-28T18:36:19;1.90;99.90
4820;DHT22;2424;49.696;6.630;2023-02-28T18:41:42;1.90;99.40
4820;DHT22;2424;49.696;6.630;2023-02-28T18:47:05;1.80;99.70
4820;DHT22;2424;49.696;6.630;2023-02-28T18:52:27;1.80;99.90
4820;DHT22;2424;49.696;6.630;2023-02-28T18:57:49;1.60;99.90
4820;DHT22;2424;49.696;6.630;2023-02-28T19:03:12;1.60;99.90
4820;DHT22;2424;49.696;6.630;2023-02-28T19:08:34;1.50;99.90
4820;DHT22;2424;49.696;6.630;2023-02-28T19:13:56;1.40;99.90
4820;DHT22;2424;49.696;6.630;2023-02-28T19:19:20;1.40;99.90
4820;DHT22;2424;49.696;6.630;2023-02-28T19:24:42;1.30;99.90
4820;DHT22;2424;49.696;6.630;2023-02-28T19:30:05;1.20;99.90
4820;DHT22;2424;49.696;6.630;2023-02-28T19:35:28;1.10;99.90
4820;DHT22;2424;49.696;6.630;2023-02-28T19:40:59;0.90;99.90
4820;DHT22;2424;49.696;6.630;2023-02-28T19:46:21;0.90;99.90
4820;DHT22;2424;49.696;6.630;2023-02-28T19:51:44;0.90;99.90
4820;DHT22;2424;49.696;6.630;2023-02-28T19:57:06;0.80;99.90
4820;DHT22;2424;49.696;6.630;2023-02-28T20:02:28;0.80;99.90
4820;DHT22;2424;49.696;6.630;2023-02-28T20:07:51;0.70;99.90
4820;DHT22;2424;49.696;6.630;2023-02-28T20:13:13;0.70;99.90
4820;DHT22;2424;49.696;6.630;2023-02-28T20:18:35;0.60;99.90
4820;DHT22;2424;49.696;6.630;2023-02-28T20:23:59;0.40;99.90
4820;DHT22;2424;49.696;6.630;2023-02-28T20:29:21;0.40;99.90
4820;DHT22;2424;49.696;6.630;2023-02-28T20:34:43;0.40;99.90
4820;DHT22;2424;49.696;6.630;2023-02-28T20:40:08;0.30;99.90
4820;DHT22;2424;49.696;6.630;2023-02-28T20:45:30;0.30;99.90
4820;DHT22;2424;49.696;6.630;2023-02-28T20:50:54;0.30;99.90
4820;DHT22;2424;49.696;6.630;2023-02-28T20:56:19;0.20;99.90
4820;DHT22;2424;49.696;6.630;2023-02-28T21:01:43;0.10;99.90
4820;DHT22;2424;49.696;6.630;2023-02-28T21:07:05;0.10;99.90
4820;DHT22;2424;49.696;6.630;2023-02-28T21:12:28;0.00;99.90
4820;DHT22;2424;49.696;6.630;2023-02-28T21:17:50;0.00;99.90
4820;DHT22;2424;49.696;6.630;2023-02-28T21:23:12;-0.10;99.90
4820;DHT22;2424;49.696;6.630;2023-02-28T21:28:36;0.00;99.90
4820;DHT22;2424;49.696;6.630;2023-02-28T21:34:04;-0.10;99.90
4820;DHT22;2424;49.696;6.630;2023-02-28T21:39:26;-0.20;99.90
4820;DHT22;2424;49.696;6.630;2023-02-28T21:44:50;-0.30;99.90
4820;DHT22;2424;49.696;6.630;2023-02-28T21:50:12;-0.40;99.90
4820;DHT22;2424;49.696;6.630;2023-02-28T21:55:34;-0.20;99.90
4820;DHT22;2424;49.696;6.630;2023-02-28T22:01:04;-0.20;99.90
4820;DHT22;2424;49.696;6.630;2023-02-28T22:06:28;-0.30;99.90
4820;DHT22;2424;49.696;6.630;2023-02-28T22:11:50;-0.30;99.90
4820;DHT22;2424;49.696;6.630;2023-02-28T22:17:13;-0.40;99.90
4820;DHT22;2424;49.696;6.630;2023-02-28T22:22:35;-0.30;99.90
4820;DHT22;2424;49.696;6.630;2023-02-28T22:27:57;-0.20;99.90
4820;DHT22;2424;49.696;6.630;2023-02-28T22:33:21;-0.10;99.90
4820;DHT22;2424;49.696;6.630;2023-02-28T22:38:44;-0.10;99.90
4820;DHT22;2424;49.696;6.630;2023-02-28T22:44:07;-0.20;99.90
4820;DHT22;2424;49.696;6.630;2023-02-28T22:49:30;-0.30;99.90
4820;DHT22;2424;49.696;6.630;2023-02-28T22:54:52;-0.40;99.90
4820;DHT22;2424;49.696;6.630;2023-02-28T23:00:14;-0.50;99.90
4820;DHT22;2424;49.696;6.630;2023-02-28T23:05:38;-0.50;99.90
4820;DHT22;2424;49.696;6.630;2023-02-28T23:11:00;-0.50;99.90
4820;DHT22;2424;49.696;6.630;2023-02-28T23:16:22;-0.60;99.90
4820;DHT22;2424;49.696;6.630;2023-02-28T23:21:45;-0.50;99.90
4820;DHT22;2424;49.696;6.630;2023-02-28T23:27:07;-0.40;99.90
4820;DHT22;2424;49.696;6.630;2023-02-28T23:32:29;-0.30;99.90
4820;DHT22;2424;49.696;6.630;2023-02-28T23:37:55;-0.40;99.90
4820;DHT22;2424;49.696;6.630;2023-02-28T23:43:17;-0.40;99.90
4820;DHT22;2424;49.696;6.630;2023-02-28T23:48:40;-0.40;99.90
4820;DHT22;2424;49.696;6.630;2023-02-28T23:54:04;-0.60;99.90
4820;DHT22;2424;49.696;6.630;2023-02-28T23:59:26;-0.80;99.90
